sensor_id;sensor_type;location;lat;lon;timestamp;pressure;altitude;pressure_sealevel;temperature;humidity
6218;BME280;3142;48.206;11.550;2022-07-19T00:02:21;96250.06;;;24.75;41.70
6218;BME280;3142;48.206;11.550;2022-07-19T00:04:47;96247.63;;;24.78;41.51
6218;BME280;3142;48.206;11.550;2022-07-19T00:07:14;96251.63;;;24.81;41.35
6218;BME280;3142;48.206;11.550;2022-07-19T00:09:40;96245.72;;;24.79;41.47
6218;BME280;3142;48.206;11.550;2022-07-19T00:12:07;96249.50;;;24.78;41.28
6218;BME280;3142;48.206;11.550;2022-07-19T00:14:33;96247.66;;;24.73;41.70
6218;BME280;3142;48.206;11.550;2022-07-19T00:17:01;96241.78;;;24.71;41.79
6218;BME280;3142;48.206;11.550;2022-07-19T00:19:27;96243.94;;;24.69;41.82
6218;BME280;3142;48.206;11.550;2022-07-19T00:21:54;96242.06;;;24.65;41.66
6218;BME280;3142;48.206;11.550;2022-07-19T00:24:21;96244.22;;;24.63;41.94
6218;BME280;3142;48.206;11.550;2022-07-19T00:26:47;96242.09;;;24.60;42.27
6218;BME280;3142;48.206;11.550;2022-07-19T00:29:14;96236.50;;;24.56;42.48
6218;BME280;3142;48.206;11.550;2022-07-19T00:31:40;96244.25;;;24.52;42.37
6218;BME280;3142;48.206;11.550;2022-07-19T00:34:08;96237.31;;;24.51;42.54
6218;BME280;3142;48.206;11.550;2022-07-19T00:36:34;96240.03;;;24.46;42.51
6218;BME280;3142;48.206;11.550;2022-07-19T00:39:01;96237.09;;;24.43;42.92
6218;BME280;3142;48.206;11.550;2022-07-19T00:41:27;96235.78;;;24.40;42.87
6218;BME280;3142;48.206;11.550;2022-07-19T00:43:56;96237.09;;;24.38;42.71
6218;BME280;3142;48.206;11.550;2022-07-19T00:46:22;96237.09;;;24.38;42.54
6218;BME280;3142;48.206;11.550;2022-07-19T00:48:49;96243.28;;;24.33;42.58
6218;BME280;3142;48.206;11.550;2022-07-19T00:51:18;96243.28;;;24.33;42.86
6218;BME280;3142;48.206;11.550;2022-07-19T00:53:44;96235.53;;;24.32;43.13
6218;BME280;3142;48.206;11.550;2022-07-19T00:56:12;96235.53;;;24.27;42.66
6218;BME280;3142;48.206;11.550;2022-07-19T00:58:40;96242.75;;;24.21;43.46
6218;BME280;3142;48.206;11.550;2022-07-19T01:01:07;96238.47;;;24.20;43.32
6218;BME280;3142;48.206;11.550;2022-07-19T01:03:35;96228.09;;;24.13;43.49
6218;BME280;3142;48.206;11.550;2022-07-19T01:06:02;96233.97;;;24.15;43.47
6218;BME280;3142;48.206;11.550;2022-07-19T01:08:30;96232.88;;;24.16;43.42
6218;BME280;3142;48.206;11.550;2022-07-19T01:10:57;96231.84;;;24.12;43.32
6218;BME280;3142;48.206;11.550;2022-07-19T01:13:24;96234.22;;;24.09;43.69
6218;BME280;3142;48.206;11.550;2022-07-19T01:15:51;96234.25;;;24.04;43.69
6218;BME280;3142;48.206;11.550;2022-07-19T01:18:17;96229.97;;;23.98;43.28
6218;BME280;3142;48.206;11.550;2022-07-19T01:20:44;96230.78;;;23.98;43.55
6218;BME280;3142;48.206;11.550;2022-07-19T01:23:11;96237.19;;;23.97;43.88
6218;BME280;3142;48.206;11.550;2022-07-19T01:25:38;96232.94;;;23.91;43.40
6218;BME280;3142;48.206;11.550;2022-07-19T01:28:06;96234.31;;;23.88;43.29
6218;BME280;3142;48.206;11.550;2022-07-19T01:30:33;96230.28;;;23.81;44.23
6218;BME280;3142;48.206;11.550;2022-07-19T01:33:00;96232.16;;;23.80;43.91
6218;BME280;3142;48.206;11.550;2022-07-19T01:35:27;96234.31;;;23.78;44.17
6218;BME280;3142;48.206;11.550;2022-07-19T01:37:54;96234.56;;;23.82;44.28
6218;BME280;3142;48.206;11.550;2022-07-19T01:40:22;96237.25;;;23.82;44.08
6218;BME280;3142;48.206;11.550;2022-07-19T01:42:49;96240.22;;;23.75;44.22
6218;BME280;3142;48.206;11.550;2022-07-19T01:45:17;96236.19;;;23.78;44.29
6218;BME280;3142;48.206;11.550;2022-07-19T01:47:44;96235.94;;;23.74;44.36
6218;BME280;3142;48.206;11.550;2022-07-19T01:50:12;96234.06;;;23.70;44.23
6218;BME280;3142;48.206;11.550;2022-07-19T01:52:39;96222.56;;;23.64;44.39
6218;BME280;3142;48.206;11.550;2022-07-19T01:55:06;96230.88;;;23.62;44.70
6218;BME280;3142;48.206;11.550;2022-07-19T01:57:34;96234.63;;;23.61;45.16
6218;BME280;3142;48.206;11.550;2022-07-19T02:00:01;96227.09;;;23.53;45.12
6218;BME280;3142;48.206;11.550;2022-07-19T02:02:28;96230.56;;;23.54;45.06
6218;BME280;3142;48.206;11.550;2022-07-19T02:04:55;96231.91;;;23.51;45.07
6218;BME280;3142;48.206;11.550;2022-07-19T02:07:21;96228.97;;;23.48;44.89
6218;BME280;3142;48.206;11.550;2022-07-19T02:09:47;96219.91;;;23.44;45.02
6218;BME280;3142;48.206;11.550;2022-07-19T02:12:14;96225.50;;;23.42;45.08
6218;BME280;3142;48.206;11.550;2022-07-19T02:14:42;96220.19;;;23.32;45.53
6218;BME280;3142;48.206;11.550;2022-07-19T02:17:08;96219.34;;;23.11;45.78
6218;BME280;3142;48.206;11.550;2022-07-19T02:19:34;96211.34;;;23.01;46.34
6218;BME280;3142;48.206;11.550;2022-07-19T02:22:01;96211.88;;;23.13;46.15
6218;BME280;3142;48.206;11.550;2022-07-19T02:24:27;96213.22;;;23.26;46.06
6218;BME280;3142;48.206;11.550;2022-07-19T02:26:54;96206.53;;;23.28;45.80
6218;BME280;3142;48.206;11.550;2022-07-19T02:29:20;96208.44;;;23.33;45.58
6218;BME280;3142;48.206;11.550;2022-07-19T02:31:48;96202.53;;;23.36;45.63
6218;BME280;3142;48.206;11.550;2022-07-19T02:34:14;96204.13;;;23.27;45.72
6218;BME280;3142;48.206;11.550;2022-07-19T02:36:41;96199.06;;;23.20;45.99
6218;BME280;3142;48.206;11.550;2022-07-19T02:39:07;96192.13;;;23.14;46.08
6218;BME280;3142;48.206;11.550;2022-07-19T02:41:33;96193.22;;;23.18;46.21
6218;BME280;3142;48.206;11.550;2022-07-19T02:44:00;96193.22;;;23.18;46.22
6218;BME280;3142;48.206;11.550;2022-07-19T02:46:26;96199.34;;;23.24;46.33
6218;BME280;3142;48.206;11.550;2022-07-19T02:48:54;96192.94;;;23.20;46.20
6218;BME280;3142;48.206;11.550;2022-07-19T02:51:20;96193.75;;;23.20;45.90
6218;BME280;3142;48.206;11.550;2022-07-19T02:53:47;96197.72;;;23.23;45.76
6218;BME280;3142;48.206;11.550;2022-07-19T02:56:13;96197.19;;;23.26;45.94
6218;BME280;3142;48.206;11.550;2022-07-19T02:58:40;96198.78;;;23.27;46.14
6218;BME280;3142;48.206;11.550;2022-07-19T03:01:06;96196.94;;;23.22;46.46
6218;BME280;3142;48.206;11.550;2022-07-19T03:03:34;96196.16;;;23.17;46.51
6218;BME280;3142;48.206;11.550;2022-07-19T03:06:12;96201.72;;;23.15;46.62
6218;BME280;3142;48.206;11.550;2022-07-19T03:08:39;96198.00;;;23.11;46.56
6218;BME280;3142;48.206;11.550;2022-07-19T03:11:06;96200.13;;;23.09;46.45
6218;BME280;3142;48.206;11.550;2022-07-19T03:13:32;96198.81;;;23.07;46.56
6218;BME280;3142;48.206;11.550;2022-07-19T03:15:59;96198.00;;;23.06;46.41
6218;BME280;3142;48.206;11.550;2022-07-19T03:18:25;96194.25;;;23.02;46.75
6218;BME280;3142;48.206;11.550;2022-07-19T03:20:51;96193.44;;;22.96;46.74
6218;BME280;3142;48.206;11.550;2022-07-19T03:23:21;96195.06;;;22.92;47.07
6218;BME280;3142;48.206;11.550;2022-07-19T03:25:47;96200.09;;;22.89;46.90
6218;BME280;3142;48.206;11.550;2022-07-19T03:28:14;96193.16;;;22.88;47.13
6218;BME280;3142;48.206;11.550;2022-07-19T03:30:40;96194.22;;;22.87;46.90
6218;BME280;3142;48.206;11.550;2022-07-19T03:33:06;96196.63;;;22.83;47.29
6218;BME280;3142;48.206;11.550;2022-07-19T03:35:34;96196.34;;;22.80;47.15
6218;BME280;3142;48.206;11.550;2022-07-19T03:38:00;96196.31;;;22.74;47.17
6218;BME280;3142;48.206;11.550;2022-07-19T03:40:28;96211.00;;;22.72;47.46
6218;BME280;3142;48.206;11.550;2022-07-19T03:42:54;96196.84;;;22.71;47.48
6218;BME280;3142;48.206;11.550;2022-07-19T03:45:21;96210.72;;;22.73;47.57
6218;BME280;3142;48.206;11.550;2022-07-19T03:47:47;96201.66;;;22.74;47.46
6218;BME280;3142;48.206;11.550;2022-07-19T03:50:14;96201.91;;;22.73;47.47
6218;BME280;3142;48.206;11.550;2022-07-19T03:52:40;96205.59;;;22.41;48.17
6218;BME280;3142;48.206;11.550;2022-07-19T03:55:07;96201.75;;;22.12;48.77
6218;BME280;3142;48.206;11.550;2022-07-19T03:57:35;96203.47;;;21.91;49.23
6218;BME280;3142;48.206;11.550;2022-07-19T04:00:02;96198.84;;;21.76;49.61
6218;BME280;3142;48.206;11.550;2022-07-19T04:02:29;96200.91;;;21.59;50.21
6218;BME280;3142;48.206;11.550;2022-07-19T04:04:56;96197.25;;;21.70;50.18
6218;BME280;3142;48.206;11.550;2022-07-19T04:07:22;96204.84;;;21.99;49.43
6218;BME280;3142;48.206;11.550;2022-07-19T04:09:49;96204.94;;;22.14;49.19
6218;BME280;3142;48.206;11.550;2022-07-19T04:12:15;96203.66;;;22.22;49.11
6218;BME280;3142;48.206;11.550;2022-07-19T04:14:43;96204.19;;;22.24;49.03
6218;BME280;3142;48.206;11.550;2022-07-19T04:17:09;96210.88;;;22.31;48.73
6218;BME280;3142;48.206;11.550;2022-07-19T04:19:36;96211.69;;;22.32;48.82
6218;BME280;3142;48.206;11.550;2022-07-19T04:22:02;96201.53;;;22.24;48.91
6218;BME280;3142;48.206;11.550;2022-07-19T04:24:29;96198.59;;;22.30;48.69
6218;BME280;3142;48.206;11.550;2022-07-19T04:26:55;96202.38;;;22.34;48.79
6218;BME280;3142;48.206;11.550;2022-07-19T04:29:22;96204.19;;;22.24;49.00
6218;BME280;3142;48.206;11.550;2022-07-19T04:31:50;96204.41;;;22.07;49.36
6218;BME280;3142;48.206;11.550;2022-07-19T04:34:16;96198.72;;;21.93;49.79
6218;BME280;3142;48.206;11.550;2022-07-19T04:36:43;96202.66;;;21.85;49.85
6218;BME280;3142;48.206;11.550;2022-07-19T04:39:09;96201.56;;;21.81;50.02
6218;BME280;3142;48.206;11.550;2022-07-19T04:41:36;96201.84;;;21.80;50.09
6218;BME280;3142;48.206;11.550;2022-07-19T04:44:02;96203.94;;;21.78;50.29
6218;BME280;3142;48.206;11.550;2022-07-19T04:46:29;96203.19;;;21.93;50.02
6218;BME280;3142;48.206;11.550;2022-07-19T04:48:56;96196.28;;;21.92;50.00
6218;BME280;3142;48.206;11.550;2022-07-19T04:51:23;96193.91;;;21.95;49.95
6218;BME280;3142;48.206;11.550;2022-07-19T04:53:49;96193.75;;;22.17;49.44
6218;BME280;3142;48.206;11.550;2022-07-19T04:56:16;96196.78;;;22.36;49.20
6218;BME280;3142;48.206;11.550;2022-07-19T04:58:42;96200.03;;;22.48;48.79
6218;BME280;3142;48.206;11.550;2022-07-19T05:01:09;96198.16;;;22.59;48.56
6218;BME280;3142;48.206;11.550;2022-07-19T05:03:35;96197.38;;;22.63;48.57
6218;BME280;3142;48.206;11.550;2022-07-19T05:06:03;96207.00;;;22.69;48.57
6218;BME280;3142;48.206;11.550;2022-07-19T05:08:29;96205.13;;;22.70;48.08
6218;BME280;3142;48.206;11.550;2022-07-19T05:10:56;96212.59;;;22.73;48.12
6218;BME280;3142;48.206;11.550;2022-07-19T05:13:22;96208.63;;;22.75;48.12
6218;BME280;3142;48.206;11.550;2022-07-19T05:15:49;96210.47;;;22.75;47.77
6218;BME280;3142;48.206;11.550;2022-07-19T05:18:15;96210.75;;;22.79;47.86
6218;BME280;3142;48.206;11.550;2022-07-19T05:20:42;96204.88;;;22.76;47.62
6218;BME280;3142;48.206;11.550;2022-07-19T05:23:09;96216.09;;;22.79;47.66
6218;BME280;3142;48.206;11.550;2022-07-19T05:25:36;96216.06;;;22.68;47.72
6218;BME280;3142;48.206;11.550;2022-07-19T05:28:03;96213.69;;;22.77;47.64
6218;BME280;3142;48.206;11.550;2022-07-19T05:30:30;96212.66;;;22.83;47.39
6218;BME280;3142;48.206;11.550;2022-07-19T05:32:56;96217.69;;;22.80;47.63
6218;BME280;3142;48.206;11.550;2022-07-19T05:35:23;96215.84;;;22.85;47.64
6218;BME280;3142;48.206;11.550;2022-07-19T05:37:49;96208.63;;;22.81;47.76
6218;BME280;3142;48.206;11.550;2022-07-19T05:40:17;96209.97;;;22.78;47.84
6218;BME280;3142;48.206;11.550;2022-07-19T05:42:44;96208.84;;;22.74;47.79
6218;BME280;3142;48.206;11.550;2022-07-19T05:45:11;96211.56;;;22.79;47.71
6218;BME280;3142;48.206;11.550;2022-07-19T05:47:37;96204.13;;;22.91;47.60
6218;BME280;3142;48.206;11.550;2022-07-19T05:50:05;96206.00;;;22.96;46.96
6218;BME280;3142;48.206;11.550;2022-07-19T05:52:31;96200.41;;;22.92;47.27
6218;BME280;3142;48.206;11.550;2022-07-19T05:54:58;96206.75;;;22.81;47.49
6218;BME280;3142;48.206;11.550;2022-07-19T05:57:26;96207.28;;;22.78;47.21
6218;BME280;3142;48.206;11.550;2022-07-19T05:59:52;96207.75;;;22.55;47.54
6218;BME280;3142;48.206;11.550;2022-07-19T06:02:19;96200.25;;;22.36;47.85
6218;BME280;3142;48.206;11.550;2022-07-19T06:04:46;96196.22;;;22.29;48.15
6218;BME280;3142;48.206;11.550;2022-07-19T06:07:12;96202.06;;;22.26;48.25
6218;BME280;3142;48.206;11.550;2022-07-19T06:09:39;96205.28;;;22.28;47.83
6218;BME280;3142;48.206;11.550;2022-07-19T06:12:06;96204.19;;;22.24;48.31
6218;BME280;3142;48.206;11.550;2022-07-19T06:14:33;96200.47;;;22.30;48.53
6218;BME280;3142;48.206;11.550;2022-07-19T06:17:00;96206.91;;;22.44;48.56
6218;BME280;3142;48.206;11.550;2022-07-19T06:19:26;96206.69;;;22.56;48.27
6218;BME280;3142;48.206;11.550;2022-07-19T06:21:53;96199.56;;;22.76;47.93
6218;BME280;3142;48.206;11.550;2022-07-19T06:24:20;96200.41;;;22.97;48.00
6218;BME280;3142;48.206;11.550;2022-07-19T06:26:46;96201.75;;;23.05;47.92
6218;BME280;3142;48.206;11.550;2022-07-19T06:29:12;96203.06;;;23.02;47.95
6218;BME280;3142;48.206;11.550;2022-07-19T06:31:40;96200.66;;;23.01;48.03
6218;BME280;3142;48.206;11.550;2022-07-19T06:34:07;96198.78;;;23.12;48.10
6218;BME280;3142;48.206;11.550;2022-07-19T06:36:33;96193.75;;;23.05;48.13
6218;BME280;3142;48.206;11.550;2022-07-19T06:39:00;96198.78;;;23.12;47.94
6218;BME280;3142;48.206;11.550;2022-07-19T06:41:26;96202.53;;;23.11;47.96
6218;BME280;3142;48.206;11.550;2022-07-19T06:43:52;96199.06;;;23.15;47.99
6218;BME280;3142;48.206;11.550;2022-07-19T06:46:19;96197.72;;;23.23;47.99
6218;BME280;3142;48.206;11.550;2022-07-19T06:48:47;96202.56;;;23.31;47.95
6218;BME280;3142;48.206;11.550;2022-07-19T06:51:13;96201.72;;;23.25;47.36
6218;BME280;3142;48.206;11.550;2022-07-19T06:53:40;96198.28;;;23.10;47.74
6218;BME280;3142;48.206;11.550;2022-07-19T06:56:07;96197.47;;;23.04;48.07
6218;BME280;3142;48.206;11.550;2022-07-19T06:58:34;96197.22;;;23.05;48.12
6218;BME280;3142;48.206;11.550;2022-07-19T07:01:00;96194.00;;;23.09;48.14
6218;BME280;3142;48.206;11.550;2022-07-19T07:03:28;96193.72;;;23.15;48.34
6218;BME280;3142;48.206;11.550;2022-07-19T07:05:56;96198.53;;;23.28;48.60
6218;BME280;3142;48.206;11.550;2022-07-19T07:08:22;96197.47;;;23.45;48.16
6218;BME280;3142;48.206;11.550;2022-07-19T07:10:49;96195.84;;;23.54;48.16
6218;BME280;3142;48.206;11.550;2022-07-19T07:13:15;96203.63;;;23.60;48.39
6218;BME280;3142;48.206;11.550;2022-07-19T07:15:42;96202.78;;;23.75;48.32
6218;BME280;3142;48.206;11.550;2022-07-19T07:18:09;96209.16;;;23.84;47.62
6218;BME280;3142;48.206;11.550;2022-07-19T07:20:35;96203.81;;;23.89;47.56
6218;BME280;3142;48.206;11.550;2022-07-19T07:23:03;96200.91;;;23.86;47.51
6218;BME280;3142;48.206;11.550;2022-07-19T07:25:30;96205.41;;;23.90;47.05
6218;BME280;3142;48.206;11.550;2022-07-19T07:27:57;96195.50;;;23.96;47.48
6218;BME280;3142;48.206;11.550;2022-07-19T07:30:23;96196.81;;;24.04;47.63
6218;BME280;3142;48.206;11.550;2022-07-19T07:32:50;96194.41;;;24.12;47.64
6218;BME280;3142;48.206;11.550;2022-07-19T07:35:16;96184.44;;;24.28;47.38
6218;BME280;3142;48.206;11.550;2022-07-19T07:37:43;96189.75;;;24.43;47.15
6218;BME280;3142;48.206;11.550;2022-07-19T07:40:11;96189.13;;;24.57;46.32
6218;BME280;3142;48.206;11.550;2022-07-19T07:42:38;96182.09;;;24.71;45.80
6218;BME280;3142;48.206;11.550;2022-07-19T07:45:05;96182.22;;;24.90;45.95
6218;BME280;3142;48.206;11.550;2022-07-19T07:47:35;96182.91;;;25.10;45.67
6218;BME280;3142;48.206;11.550;2022-07-19T07:50:02;96186.84;;;25.23;44.60
6218;BME280;3142;48.206;11.550;2022-07-19T07:52:28;96171.72;;;25.37;44.20
6218;BME280;3142;48.206;11.550;2022-07-19T07:54:55;96182.84;;;25.50;43.79
6218;BME280;3142;48.206;11.550;2022-07-19T07:57:23;96180.13;;;25.55;43.79
6218;BME280;3142;48.206;11.550;2022-07-19T07:59:49;96183.47;;;25.71;43.31
6218;BME280;3142;48.206;11.550;2022-07-19T08:02:15;96178.16;;;25.89;42.99
6218;BME280;3142;48.206;11.550;2022-07-19T08:04:42;96182.03;;;26.02;42.77
6218;BME280;3142;48.206;11.550;2022-07-19T08:07:08;96191.25;;;26.20;42.68
6218;BME280;3142;48.206;11.550;2022-07-19T08:09:35;96174.56;;;26.23;42.18
6218;BME280;3142;48.206;11.550;2022-07-19T08:12:01;96181.16;;;26.36;41.86
6218;BME280;3142;48.206;11.550;2022-07-19T08:14:29;96177.28;;;26.42;41.57
6218;BME280;3142;48.206;11.550;2022-07-19T08:16:56;96178.69;;;26.58;41.19
6218;BME280;3142;48.206;11.550;2022-07-19T08:19:22;96178.34;;;26.65;41.05
6218;BME280;3142;48.206;11.550;2022-07-19T08:21:49;96180.00;;;26.79;41.09
6218;BME280;3142;48.206;11.550;2022-07-19T08:24:15;96174.09;;;26.96;40.47
6218;BME280;3142;48.206;11.550;2022-07-19T08:26:41;96163.13;;;27.11;40.62
6218;BME280;3142;48.206;11.550;2022-07-19T08:29:08;96174.22;;;27.24;39.44
6218;BME280;3142;48.206;11.550;2022-07-19T08:31:36;96178.34;;;27.35;39.19
6218;BME280;3142;48.206;11.550;2022-07-19T08:34:02;96173.47;;;27.37;38.76
6218;BME280;3142;48.206;11.550;2022-07-19T08:36:29;96157.34;;;27.37;38.83
6218;BME280;3142;48.206;11.550;2022-07-19T08:38:55;96166.06;;;27.61;38.94
6218;BME280;3142;48.206;11.550;2022-07-19T08:41:22;96168.69;;;27.80;39.09
6218;BME280;3142;48.206;11.550;2022-07-19T08:43:49;96158.16;;;27.97;38.42
6218;BME280;3142;48.206;11.550;2022-07-19T08:46:19;96165.13;;;28.12;38.19
6218;BME280;3142;48.206;11.550;2022-07-19T08:48:47;96166.94;;;28.30;37.35
6218;BME280;3142;48.206;11.550;2022-07-19T08:51:18;96165.22;;;28.35;37.37
6218;BME280;3142;48.206;11.550;2022-07-19T08:53:44;96172.50;;;28.34;36.79
6218;BME280;3142;48.206;11.550;2022-07-19T08:56:11;96158.69;;;28.49;36.84
6218;BME280;3142;48.206;11.550;2022-07-19T08:58:55;96161.75;;;28.70;36.81
6218;BME280;3142;48.206;11.550;2022-07-19T09:01:22;96165.50;;;28.83;35.79
6218;BME280;3142;48.206;11.550;2022-07-19T09:04:12;96162.63;;;28.93;35.64
6218;BME280;3142;48.206;11.550;2022-07-19T09:06:44;96159.78;;;28.98;34.74
6218;BME280;3142;48.206;11.550;2022-07-19T09:09:11;96152.72;;;28.88;34.37
6218;BME280;3142;48.206;11.550;2022-07-19T09:11:39;96155.28;;;29.07;34.38
6218;BME280;3142;48.206;11.550;2022-07-19T09:14:14;96155.06;;;29.26;34.23
6218;BME280;3142;48.206;11.550;2022-07-19T09:16:55;96146.28;;;29.43;33.73
6218;BME280;3142;48.206;11.550;2022-07-19T09:19:25;96140.03;;;29.56;34.30
6218;BME280;3142;48.206;11.550;2022-07-19T09:21:53;96147.75;;;29.80;33.50
6218;BME280;3142;48.206;11.550;2022-07-19T09:24:21;96146.38;;;30.00;33.27
6218;BME280;3142;48.206;11.550;2022-07-19T09:26:55;96151.72;;;30.22;33.11
6218;BME280;3142;48.206;11.550;2022-07-19T09:29:22;96144.59;;;30.35;32.08
6218;BME280;3142;48.206;11.550;2022-07-19T09:32:05;96144.44;;;30.40;30.80
6218;BME280;3142;48.206;11.550;2022-07-19T09:34:34;96143.66;;;30.40;29.97
6218;BME280;3142;48.206;11.550;2022-07-19T09:37:10;96134.47;;;30.49;30.32
6218;BME280;3142;48.206;11.550;2022-07-19T09:39:37;96137.34;;;30.70;30.47
6218;BME280;3142;48.206;11.550;2022-07-19T09:42:06;96135.28;;;30.67;29.36
6218;BME280;3142;48.206;11.550;2022-07-19T09:44:33;96145.63;;;30.74;29.01
6218;BME280;3142;48.206;11.550;2022-07-19T09:47:00;96135.47;;;30.71;29.32
6218;BME280;3142;48.206;11.550;2022-07-19T09:49:26;96135.91;;;30.81;29.47
6218;BME280;3142;48.206;11.550;2022-07-19T09:51:54;96131.78;;;30.92;29.47
6218;BME280;3142;48.206;11.550;2022-07-19T09:54:22;96137.66;;;31.03;29.33
6218;BME280;3142;48.206;11.550;2022-07-19T09:56:50;96130.34;;;31.12;28.55
6218;BME280;3142;48.206;11.550;2022-07-19T09:59:18;96126.22;;;30.98;28.38
6218;BME280;3142;48.206;11.550;2022-07-19T10:01:46;96131.44;;;31.11;28.61
6218;BME280;3142;48.206;11.550;2022-07-19T10:04:14;96119.38;;;31.26;28.56
6218;BME280;3142;48.206;11.550;2022-07-19T10:06:42;96118.84;;;31.41;27.97
6218;BME280;3142;48.206;11.550;2022-07-19T10:09:13;96121.38;;;31.46;27.97
6218;BME280;3142;48.206;11.550;2022-07-19T10:11:40;96111.00;;;31.57;28.15
6218;BME280;3142;48.206;11.550;2022-07-19T10:14:07;96109.19;;;31.70;27.88
6218;BME280;3142;48.206;11.550;2022-07-19T10:16:47;96116.03;;;31.76;27.35
6218;BME280;3142;48.206;11.550;2022-07-19T10:19:17;96106.78;;;31.77;27.62
6218;BME280;3142;48.206;11.550;2022-07-19T10:21:45;96102.28;;;31.90;27.45
6218;BME280;3142;48.206;11.550;2022-07-19T10:24:13;96103.88;;;31.91;27.49
6218;BME280;3142;48.206;11.550;2022-07-19T10:26:42;96106.63;;;31.82;26.86
6218;BME280;3142;48.206;11.550;2022-07-19T10:29:10;96103.72;;;31.87;27.34
6218;BME280;3142;48.206;11.550;2022-07-19T10:31:37;96104.38;;;31.84;26.89
6218;BME280;3142;48.206;11.550;2022-07-19T10:34:07;96101.94;;;31.91;27.24
6218;BME280;3142;48.206;11.550;2022-07-19T10:36:38;96097.28;;;32.00;26.10
6218;BME280;3142;48.206;11.550;2022-07-19T10:39:25;96103.28;;;32.06;26.15
6218;BME280;3142;48.206;11.550;2022-07-19T10:42:13;96103.84;;;32.20;26.00
6218;BME280;3142;48.206;11.550;2022-07-19T10:48:06;96111.91;;;32.37;25.21
6218;BME280;3142;48.206;11.550;2022-07-19T10:51:00;96095.78;;;32.11;25.29
6218;BME280;3142;48.206;11.550;2022-07-19T10:53:58;96098.97;;;32.13;25.77
6218;BME280;3142;48.206;11.550;2022-07-19T10:56:37;96087.25;;;32.01;25.66
6218;BME280;3142;48.206;11.550;2022-07-19T10:59:05;96085.38;;;31.93;25.70
6218;BME280;3142;48.206;11.550;2022-07-19T11:01:33;96097.19;;;32.18;26.61
6218;BME280;3142;48.206;11.550;2022-07-19T11:04:29;96090.09;;;32.55;26.68
6218;BME280;3142;48.206;11.550;2022-07-19T11:07:16;96088.63;;;32.78;26.60
6218;BME280;3142;48.206;11.550;2022-07-19T11:09:46;96079.38;;;32.79;26.43
6218;BME280;3142;48.206;11.550;2022-07-19T11:12:26;96079.03;;;32.81;25.78
6218;BME280;3142;48.206;11.550;2022-07-19T11:14:53;96077.78;;;32.78;25.88
6218;BME280;3142;48.206;11.550;2022-07-19T11:17:19;96084.84;;;32.70;25.76
6218;BME280;3142;48.206;11.550;2022-07-19T11:20:04;96080.84;;;32.77;25.94
6218;BME280;3142;48.206;11.550;2022-07-19T11:22:36;96075.72;;;32.96;25.72
6218;BME280;3142;48.206;11.550;2022-07-19T11:25:04;96065.06;;;33.24;25.77
6218;BME280;3142;48.206;11.550;2022-07-19T11:27:32;96072.94;;;33.17;25.60
6218;BME280;3142;48.206;11.550;2022-07-19T11:30:00;96070.72;;;33.19;25.46
6218;BME280;3142;48.206;11.550;2022-07-19T11:32:28;96060.50;;;33.16;25.73
6218;BME280;3142;48.206;11.550;2022-07-19T11:34:57;96067.03;;;33.03;25.28
6218;BME280;3142;48.206;11.550;2022-07-19T11:37:25;96059.19;;;32.89;25.10
6218;BME280;3142;48.206;11.550;2022-07-19T11:39:52;96058.88;;;32.69;26.00
6218;BME280;3142;48.206;11.550;2022-07-19T11:42:34;96052.66;;;32.48;26.06
6218;BME280;3142;48.206;11.550;2022-07-19T11:45:09;96052.09;;;32.42;26.04
6218;BME280;3142;48.206;11.550;2022-07-19T11:47:37;96046.72;;;32.55;27.01
6218;BME280;3142;48.206;11.550;2022-07-19T11:50:08;96033.00;;;32.72;26.30
6218;BME280;3142;48.206;11.550;2022-07-19T11:52:43;96040.63;;;32.58;25.63
6218;BME280;3142;48.206;11.550;2022-07-19T11:55:10;96024.75;;;32.68;26.69
6218;BME280;3142;48.206;11.550;2022-07-19T11:57:37;96035.59;;;32.68;26.33
6218;BME280;3142;48.206;11.550;2022-07-19T12:00:07;96036.06;;;32.70;26.03
6218;BME280;3142;48.206;11.550;2022-07-19T12:02:49;96043.63;;;32.65;25.71
6218;BME280;3142;48.206;11.550;2022-07-19T12:05:15;96033.13;;;32.63;26.38
6218;BME280;3142;48.206;11.550;2022-07-19T12:07:45;96035.16;;;32.66;26.49
6218;BME280;3142;48.206;11.550;2022-07-19T12:10:31;96023.41;;;32.62;26.04
6218;BME280;3142;48.206;11.550;2022-07-19T12:12:59;96023.91;;;32.56;26.53
6218;BME280;3142;48.206;11.550;2022-07-19T12:15:26;96017.38;;;32.57;26.27
6218;BME280;3142;48.206;11.550;2022-07-19T12:17:56;96013.09;;;32.56;26.45
6218;BME280;3142;48.206;11.550;2022-07-19T12:20:23;96015.66;;;32.52;26.16
6218;BME280;3142;48.206;11.550;2022-07-19T12:22:49;96029.63;;;32.42;26.76
6218;BME280;3142;48.206;11.550;2022-07-19T12:25:35;96018.22;;;32.36;26.73
6218;BME280;3142;48.206;11.550;2022-07-19T12:28:03;96016.41;;;32.40;26.50
6218;BME280;3142;48.206;11.550;2022-07-19T12:30:30;96018.00;;;32.41;26.29
6218;BME280;3142;48.206;11.550;2022-07-19T12:33:06;96012.78;;;32.36;26.27
6218;BME280;3142;48.206;11.550;2022-07-19T12:35:40;95995.66;;;32.24;25.97
6218;BME280;3142;48.206;11.550;2022-07-19T12:38:08;95999.16;;;32.24;26.07
6218;BME280;3142;48.206;11.550;2022-07-19T12:40:37;95997.09;;;32.21;25.81
6218;BME280;3142;48.206;11.550;2022-07-19T12:43:05;95995.03;;;32.18;25.58
6218;BME280;3142;48.206;11.550;2022-07-19T12:45:34;95998.53;;;32.19;25.44
6218;BME280;3142;48.206;11.550;2022-07-19T12:48:02;95993.91;;;32.19;24.76
6218;BME280;3142;48.206;11.550;2022-07-19T12:50:31;95989.16;;;32.16;25.27
6218;BME280;3142;48.206;11.550;2022-07-19T12:52:59;95989.63;;;32.18;25.09
6218;BME280;3142;48.206;11.550;2022-07-19T12:55:28;95989.63;;;32.18;25.12
6218;BME280;3142;48.206;11.550;2022-07-19T12:57:56;95991.81;;;32.25;24.77
6218;BME280;3142;48.206;11.550;2022-07-19T13:00:25;95985.81;;;32.40;24.68
6218;BME280;3142;48.206;11.550;2022-07-19T13:02:53;95982.88;;;32.45;25.06
6218;BME280;3142;48.206;11.550;2022-07-19T13:05:21;95989.78;;;32.42;24.74
6218;BME280;3142;48.206;11.550;2022-07-19T13:07:48;95986.72;;;32.44;24.50
6218;BME280;3142;48.206;11.550;2022-07-19T13:10:15;95976.09;;;32.39;24.43
6218;BME280;3142;48.206;11.550;2022-07-19T13:12:42;95983.16;;;32.31;25.59
6218;BME280;3142;48.206;11.550;2022-07-19T13:15:10;95980.69;;;32.18;25.86
6218;BME280;3142;48.206;11.550;2022-07-19T13:17:38;95982.91;;;32.24;26.75
6218;BME280;3142;48.206;11.550;2022-07-19T13:20:06;95966.78;;;32.28;26.63